sensor_id;sensor_type;location;lat;lon;timestamp;P1;durP1;ratioP1;P2;durP2;ratioP2
53801;SDS011;39709;53.334;6.534;2023-02-28T00:01:19;9.82;;;1.20;;
53801;SDS011;39709;53.334;6.534;2023-02-28T00:03:46;12.90;;;1.23;;
53801;SDS011;39709;53.334;6.534;2023-02-28T00:06:12;12.07;;;1.30;;
53801;SDS011;39709;53.334;6.534;2023-02-28T00:08:37;12.47;;;1.40;;
53801;SDS011;39709;53.334;6.534;2023-02-28T00:11:13;11.30;;;1.57;;
53801;SDS011;39709;53.334;6.534;2023-02-28T00:13:41;9.68;;;1.30;;
53801;SDS011;39709;53.334;6.534;2023-02-28T00:16:12;10.60;;;0.90;;
53801;SDS011;39709;53.334;6.534;2023-02-28T00:18:39;16.65;;;1.55;;
53801;SDS011;39709;53.334;6.534;2023-02-28T00:21:06;10.05;;;1.33;;
53801;SDS011;39709;53.334;6.534;2023-02-28T00:23:32;6.87;;;1.10;;
53801;SDS011;39709;53.334;6.534;2023-02-28T00:25:58;13.18;;;1.45;;
53801;SDS011;39709;53.334;6.534;2023-02-28T00:28:24;9.50;;;1.08;;
53801;SDS011;39709;53.334;6.534;2023-02-28T00:30:50;8.37;;;1.00;;
53801;SDS011;39709;53.334;6.534;2023-02-28T00:33:16;13.68;;;1.20;;
53801;SDS011;39709;53.334;6.534;2023-02-28T00:35:41;11.15;;;1.52;;
53801;SDS011;39709;53.334;6.534;2023-02-28T00:38:07;9.10;;;1.37;;
53801;SDS011;39709;53.334;6.534;2023-02-28T00:40:33;11.40;;;1.30;;
53801;SDS011;39709;53.334;6.534;2023-02-28T00:42:59;10.77;;;1.30;;
53801;SDS011;39709;53.334;6.534;2023-02-28T00:45:24;13.33;;;1.70;;
53801;SDS011;39709;53.334;6.534;2023-02-28T00:47:51;12.25;;;1.25;;
53801;SDS011;39709;53.334;6.534;2023-02-28T00:50:17;7.75;;;1.20;;
53801;SDS011;39709;53.334;6.534;2023-02-28T00:52:45;12.50;;;1.60;;
53801;SDS011;39709;53.334;6.534;2023-02-28T00:55:10;10.03;;;1.53;;
53801;SDS011;39709;53.334;6.534;2023-02-28T00:57:36;9.13;;;1.10;;
53801;SDS011;39709;53.334;6.534;2023-02-28T01:00:02;7.47;;;0.70;;
53801;SDS011;39709;53.334;6.534;2023-02-28T01:02:29;8.38;;;1.10;;
53801;SDS011;39709;53.334;6.534;2023-02-28T01:04:55;12.35;;;1.10;;
53801;SDS011;39709;53.334;6.534;2023-02-28T01:07:22;11.27;;;1.53;;
53801;SDS011;39709;53.334;6.534;2023-02-28T01:09:48;8.10;;;0.90;;
53801;SDS011;39709;53.334;6.534;2023-02-28T01:12:14;10.57;;;1.45;;
53801;SDS011;39709;53.334;6.534;2023-02-28T01:14:40;7.97;;;1.07;;
53801;SDS011;39709;53.334;6.534;2023-02-28T01:17:05;11.50;;;1.42;;
53801;SDS011;39709;53.334;6.534;2023-02-28T01:19:31;10.27;;;1.10;;
53801;SDS011;39709;53.334;6.534;2023-02-28T01:21:59;8.20;;;1.08;;
53801;SDS011;39709;53.334;6.534;2023-02-28T01:24:27;10.75;;;1.23;;
53801;SDS011;39709;53.334;6.534;2023-02-28T01:26:53;11.70;;;1.33;;
53801;SDS011;39709;53.334;6.534;2023-02-28T01:29:18;7.85;;;1.00;;
53801;SDS011;39709;53.334;6.534;2023-02-28T01:31:44;12.20;;;1.07;;
53801;SDS011;39709;53.334;6.534;2023-02-28T01:34:09;7.35;;;1.02;;
53801;SDS011;39709;53.334;6.534;2023-02-28T01:36:35;8.83;;;0.93;;
53801;SDS011;39709;53.334;6.534;2023-02-28T01:39:01;5.18;;;0.80;;
53801;SDS011;39709;53.334;6.534;2023-02-28T01:41:28;9.88;;;0.82;;
53801;SDS011;39709;53.334;6.534;2023-02-28T01:46:22;10.75;;;1.10;;
53801;SDS011;39709;53.334;6.534;2023-02-28T01:48:52;12.98;;;1.23;;
53801;SDS011;39709;53.334;6.534;2023-02-28T01:51:27;8.87;;;0.83;;
53801;SDS011;39709;53.334;6.534;2023-02-28T01:54:02;8.35;;;0.70;;
53801;SDS011;39709;53.334;6.534;2023-02-28T01:56:38;8.40;;;1.10;;
53801;SDS011;39709;53.334;6.534;2023-02-28T01:59:09;8.27;;;0.95;;
53801;SDS011;39709;53.334;6.534;2023-02-28T02:01:37;7.75;;;0.70;;
53801;SDS011;39709;53.334;6.534;2023-02-28T02:04:03;11.20;;;0.90;;
53801;SDS011;39709;53.334;6.534;2023-02-28T02:06:50;12.85;;;0.75;;
53801;SDS011;39709;53.334;6.534;2023-02-28T02:09:15;6.35;;;0.73;;
53801;SDS011;39709;53.334;6.534;2023-02-28T02:11:42;10.13;;;1.07;;
53801;SDS011;39709;53.334;6.534;2023-02-28T02:14:31;9.60;;;1.15;;
53801;SDS011;39709;53.334;6.534;2023-02-28T02:17:30;6.90;;;1.10;;
53801;SDS011;39709;53.334;6.534;2023-02-28T02:23:08;7.00;;;1.10;;
53801;SDS011;39709;53.334;6.534;2023-02-28T02:31:06;9.70;;;0.77;;
53801;SDS011;39709;53.334;6.534;2023-02-28T02:36:46;6.73;;;0.90;;
53801;SDS011;39709;53.334;6.534;2023-02-28T02:42:05;8.57;;;0.90;;
53801;SDS011;39709;53.334;6.534;2023-02-28T02:47:17;8.55;;;1.08;;
53801;SDS011;39709;53.334;6.534;2023-02-28T02:49:47;8.17;;;1.00;;
53801;SDS011;39709;53.334;6.534;2023-02-28T02:52:17;9.73;;;0.90;;
53801;SDS011;39709;53.334;6.534;2023-02-28T02:54:48;8.40;;;1.15;;
53801;SDS011;39709;53.334;6.534;2023-02-28T02:57:38;7.53;;;0.93;;
53801;SDS011;39709;53.334;6.534;2023-02-28T03:00:16;6.22;;;0.70;;
53801;SDS011;39709;53.334;6.534;2023-02-28T03:02:45;9.87;;;1.00;;
53801;SDS011;39709;53.334;6.534;2023-02-28T03:05:21;5.57;;;0.65;;
53801;SDS011;39709;53.334;6.534;2023-02-28T03:07:50;8.88;;;0.80;;
53801;SDS011;39709;53.334;6.534;2023-02-28T03:10:30;8.37;;;0.80;;
53801;SDS011;39709;53.334;6.534;2023-02-28T03:13:08;5.32;;;0.82;;
53801;SDS011;39709;53.334;6.534;2023-02-28T03:21:27;8.07;;;1.60;;
53801;SDS011;39709;53.334;6.534;2023-02-28T03:24:23;10.53;;;1.00;;
53801;SDS011;39709;53.334;6.534;2023-02-28T03:26:52;7.53;;;0.98;;
53801;SDS011;39709;53.334;6.534;2023-02-28T03:29:32;10.30;;;1.05;;
53801;SDS011;39709;53.334;6.534;2023-02-28T03:32:05;7.32;;;0.80;;
53801;SDS011;39709;53.334;6.534;2023-02-28T03:34:58;12.55;;;1.55;;
53801;SDS011;39709;53.334;6.534;2023-02-28T03:37:31;10.50;;;0.80;;
53801;SDS011;39709;53.334;6.534;2023-02-28T03:40:22;13.43;;;0.95;;
53801;SDS011;39709;53.334;6.534;2023-02-28T03:42:49;10.18;;;1.17;;
53801;SDS011;39709;53.334;6.534;2023-02-28T03:45:24;6.25;;;0.80;;
53801;SDS011;39709;53.334;6.534;2023-02-28T03:47:53;6.78;;;1.08;;
53801;SDS011;39709;53.334;6.534;2023-02-28T03:50:27;14.40;;;1.47;;
53801;SDS011;39709;53.334;6.534;2023-02-28T03:53:04;9.93;;;1.13;;
53801;SDS011;39709;53.334;6.534;2023-02-28T03:55:58;7.50;;;1.00;;
53801;SDS011;39709;53.334;6.534;2023-02-28T03:58:41;11.65;;;1.27;;
53801;SDS011;39709;53.334;6.534;2023-02-28T04:01:20;8.95;;;1.13;;
53801;SDS011;39709;53.334;6.534;2023-02-28T04:04:06;11.53;;;1.20;;
53801;SDS011;39709;53.334;6.534;2023-02-28T04:06:33;7.20;;;1.10;;
53801;SDS011;39709;53.334;6.534;2023-02-28T04:08:59;9.52;;;1.42;;
53801;SDS011;39709;53.334;6.534;2023-02-28T04:11:44;9.23;;;1.30;;
53801;SDS011;39709;53.334;6.534;2023-02-28T04:14:16;11.80;;;1.38;;
53801;SDS011;39709;53.334;6.534;2023-02-28T04:16:42;13.23;;;1.53;;
53801;SDS011;39709;53.334;6.534;2023-02-28T04:19:09;11.33;;;1.03;;
53801;SDS011;39709;53.334;6.534;2023-02-28T04:21:39;12.83;;;0.97;;
53801;SDS011;39709;53.334;6.534;2023-02-28T04:24:07;12.75;;;1.17;;
53801;SDS011;39709;53.334;6.534;2023-02-28T04:26:39;5.07;;;0.60;;
53801;SDS011;39709;53.334;6.534;2023-02-28T04:29:06;8.32;;;1.10;;
53801;SDS011;39709;53.334;6.534;2023-02-28T04:31:32;10.25;;;1.30;;
53801;SDS011;39709;53.334;6.534;2023-02-28T04:33:59;7.13;;;1.67;;
53801;SDS011;39709;53.334;6.534;2023-02-28T04:36:25;11.07;;;3.78;;
53801;SDS011;39709;53.334;6.534;2023-02-28T04:38:51;11.98;;;3.70;;
53801;SDS011;39709;53.334;6.534;2023-02-28T04:41:17;15.88;;;5.40;;
53801;SDS011;39709;53.334;6.534;2023-02-28T04:43:43;16.70;;;7.13;;
53801;SDS011;39709;53.334;6.534;2023-02-28T04:46:09;17.00;;;8.33;;
53801;SDS011;39709;53.334;6.534;2023-02-28T04:48:36;17.77;;;8.88;;
53801;SDS011;39709;53.334;6.534;2023-02-28T04:51:04;18.73;;;9.63;;
53801;SDS011;39709;53.334;6.534;2023-02-28T04:53:32;13.80;;;7.00;;
53801;SDS011;39709;53.334;6.534;2023-02-28T04:55:57;16.38;;;7.82;;
53801;SDS011;39709;53.334;6.534;2023-02-28T04:58:23;16.50;;;8.65;;
53801;SDS011;39709;53.334;6.534;2023-02-28T05:00:53;13.15;;;5.72;;
53801;SDS011;39709;53.334;6.534;2023-02-28T05:03:25;16.23;;;7.70;;
53801;SDS011;39709;53.334;6.534;2023-02-28T05:05:51;14.55;;;6.72;;
53801;SDS011;39709;53.334;6.534;2023-02-28T05:08:17;10.30;;;4.37;;
53801;SDS011;39709;53.334;6.534;2023-02-28T05:10:42;11.90;;;5.53;;
53801;SDS011;39709;53.334;6.534;2023-02-28T05:13:10;12.27;;;6.00;;
53801;SDS011;39709;53.334;6.534;2023-02-28T05:15:37;13.90;;;6.47;;
53801;SDS011;39709;53.334;6.534;2023-02-28T05:18:03;14.27;;;6.37;;
53801;SDS011;39709;53.334;6.534;2023-02-28T05:20:28;13.98;;;6.03;;
53801;SDS011;39709;53.334;6.534;2023-02-28T05:22:54;11.80;;;5.43;;
53801;SDS011;39709;53.334;6.534;2023-02-28T05:25:28;12.88;;;5.88;;
53801;SDS011;39709;53.334;6.534;2023-02-28T05:27:54;10.50;;;4.40;;
53801;SDS011;39709;53.334;6.534;2023-02-28T05:30:19;11.90;;;5.27;;
53801;SDS011;39709;53.334;6.534;2023-02-28T05:32:49;11.93;;;4.75;;
53801;SDS011;39709;53.334;6.534;2023-02-28T05:35:16;14.05;;;6.68;;
53801;SDS011;39709;53.334;6.534;2023-02-28T05:37:41;14.30;;;6.60;;
53801;SDS011;39709;53.334;6.534;2023-02-28T05:40:08;17.58;;;7.70;;
53801;SDS011;39709;53.334;6.534;2023-02-28T05:42:38;15.15;;;7.45;;
53801;SDS011;39709;53.334;6.534;2023-02-28T05:45:04;14.60;;;6.63;;
53801;SDS011;39709;53.334;6.534;2023-02-28T05:47:31;14.10;;;6.57;;
53801;SDS011;39709;53.334;6.534;2023-02-28T05:49:57;15.13;;;6.65;;
53801;SDS011;39709;53.334;6.534;2023-02-28T05:52:23;14.90;;;6.27;;
53801;SDS011;39709;53.334;6.534;2023-02-28T05:54:49;1.77;;;0.60;;
53801;SDS011;39709;53.334;6.534;2023-02-28T05:57:14;7.03;;;2.80;;
53801;SDS011;39709;53.334;6.534;2023-02-28T05:59:40;8.05;;;3.00;;
53801;SDS011;39709;53.334;6.534;2023-02-28T06:02:10;4.13;;;1.27;;
53801;SDS011;39709;53.334;6.534;2023-02-28T06:04:40;8.10;;;2.92;;
53801;SDS011;39709;53.334;6.534;2023-02-28T06:07:06;8.15;;;2.70;;
53801;SDS011;39709;53.334;6.534;2023-02-28T06:09:32;10.10;;;3.55;;
53801;SDS011;39709;53.334;6.534;2023-02-28T06:11:59;8.77;;;3.97;;
53801;SDS011;39709;53.334;6.534;2023-02-28T06:14:27;8.60;;;3.33;;
53801;SDS011;39709;53.334;6.534;2023-02-28T06:16:53;9.27;;;3.70;;
53801;SDS011;39709;53.334;6.534;2023-02-28T06:19:19;11.10;;;4.07;;
53801;SDS011;39709;53.334;6.534;2023-02-28T06:21:45;11.48;;;4.63;;
53801;SDS011;39709;53.334;6.534;2023-02-28T06:24:13;7.03;;;2.30;;
53801;SDS011;39709;53.334;6.534;2023-02-28T06:26:39;10.95;;;4.25;;
53801;SDS011;39709;53.334;6.534;2023-02-28T06:29:05;3.90;;;1.30;;
53801;SDS011;39709;53.334;6.534;2023-02-28T06:31:30;4.40;;;1.02;;
53801;SDS011;39709;53.334;6.534;2023-02-28T06:33:56;8.03;;;2.57;;
53801;SDS011;39709;53.334;6.534;2023-02-28T06:36:22;9.43;;;3.50;;
53801;SDS011;39709;53.334;6.534;2023-02-28T06:38:48;11.00;;;4.55;;
53801;SDS011;39709;53.334;6.534;2023-02-28T06:41:19;11.48;;;3.83;;
53801;SDS011;39709;53.334;6.534;2023-02-28T06:43:46;5.27;;;1.67;;
53801;SDS011;39709;53.334;6.534;2023-02-28T06:46:12;1.77;;;0.38;;
53801;SDS011;39709;53.334;6.534;2023-02-28T06:48:39;9.38;;;4.03;;
53801;SDS011;39709;53.334;6.534;2023-02-28T06:51:08;9.98;;;4.03;;
53801;SDS011;39709;53.334;6.534;2023-02-28T06:53:39;6.13;;;1.83;;
53801;SDS011;39709;53.334;6.534;2023-02-28T06:56:06;9.13;;;3.92;;
53801;SDS011;39709;53.334;6.534;2023-02-28T06:58:37;11.48;;;5.30;;
53801;SDS011;39709;53.334;6.534;2023-02-28T07:01:04;20.27;;;10.18;;
53801;SDS011;39709;53.334;6.534;2023-02-28T07:03:31;19.52;;;10.48;;
53801;SDS011;39709;53.334;6.534;2023-02-28T07:05:56;18.67;;;11.43;;
53801;SDS011;39709;53.334;6.534;2023-02-28T07:08:23;21.92;;;14.23;;
53801;SDS011;39709;53.334;6.534;2023-02-28T07:10:53;11.57;;;6.10;;
53801;SDS011;39709;53.334;6.534;2023-02-28T07:13:19;30.97;;;21.63;;
53801;SDS011;39709;53.334;6.534;2023-02-28T07:15:52;14.85;;;8.60;;
53801;SDS011;39709;53.334;6.534;2023-02-28T07:18:22;15.20;;;8.55;;
53801;SDS011;39709;53.334;6.534;2023-02-28T07:20:48;12.75;;;5.88;;
53801;SDS011;39709;53.334;6.534;2023-02-28T07:23:14;16.07;;;8.20;;
53801;SDS011;39709;53.334;6.534;2023-02-28T07:25:40;11.10;;;4.50;;
53801;SDS011;39709;53.334;6.534;2023-02-28T07:28:06;10.60;;;4.73;;
53801;SDS011;39709;53.334;6.534;2023-02-28T07:30:31;12.38;;;4.93;;
53801;SDS011;39709;53.334;6.534;2023-02-28T07:32:57;11.23;;;5.13;;
53801;SDS011;39709;53.334;6.534;2023-02-28T07:35:23;8.82;;;3.28;;
53801;SDS011;39709;53.334;6.534;2023-02-28T07:37:48;5.57;;;1.70;;
53801;SDS011;39709;53.334;6.534;2023-02-28T07:40:14;12.95;;;6.10;;
53801;SDS011;39709;53.334;6.534;2023-02-28T07:42:41;6.00;;;1.80;;
53801;SDS011;39709;53.334;6.534;2023-02-28T07:45:07;13.23;;;5.87;;
53801;SDS011;39709;53.334;6.534;2023-02-28T07:47:36;5.63;;;1.67;;
53801;SDS011;39709;53.334;6.534;2023-02-28T07:50:06;3.30;;;1.40;;
53801;SDS011;39709;53.334;6.534;2023-02-28T07:52:35;5.93;;;2.20;;
53801;SDS011;39709;53.334;6.534;2023-02-28T07:55:02;15.20;;;6.03;;
53801;SDS011;39709;53.334;6.534;2023-02-28T07:57:27;12.20;;;6.10;;
53801;SDS011;39709;53.334;6.534;2023-02-28T07:59:53;18.50;;;10.73;;
53801;SDS011;39709;53.334;6.534;2023-02-28T08:02:19;12.60;;;5.03;;
53801;SDS011;39709;53.334;6.534;2023-02-28T08:04:45;10.48;;;3.05;;
53801;SDS011;39709;53.334;6.534;2023-02-28T08:07:12;14.90;;;4.95;;
53801;SDS011;39709;53.334;6.534;2023-02-28T08:09:38;16.13;;;6.90;;
53801;SDS011;39709;53.334;6.534;2023-02-28T08:12:04;9.65;;;3.30;;
53801;SDS011;39709;53.334;6.534;2023-02-28T08:14:31;14.30;;;6.65;;
53801;SDS011;39709;53.334;6.534;2023-02-28T08:16:56;14.27;;;5.73;;
53801;SDS011;39709;53.334;6.534;2023-02-28T08:19:25;10.53;;;4.27;;
53801;SDS011;39709;53.334;6.534;2023-02-28T08:21:51;13.60;;;5.45;;
53801;SDS011;39709;53.334;6.534;2023-02-28T08:24:17;15.30;;;7.22;;
53801;SDS011;39709;53.334;6.534;2023-02-28T08:26:42;17.20;;;7.23;;
53801;SDS011;39709;53.334;6.534;2023-02-28T08:29:08;14.50;;;6.83;;
53801;SDS011;39709;53.334;6.534;2023-02-28T08:31:34;14.95;;;6.93;;
53801;SDS011;39709;53.334;6.534;2023-02-28T08:34:04;14.50;;;6.40;;
53801;SDS011;39709;53.334;6.534;2023-02-28T08:36:34;15.90;;;6.97;;
53801;SDS011;39709;53.334;6.534;2023-02-28T08:39:00;12.82;;;5.78;;
53801;SDS011;39709;53.334;6.534;2023-02-28T08:41:26;11.65;;;5.28;;
53801;SDS011;39709;53.334;6.534;2023-02-28T08:43:52;14.95;;;7.28;;
53801;SDS011;39709;53.334;6.534;2023-02-28T08:46:18;14.07;;;7.05;;
53801;SDS011;39709;53.334;6.534;2023-02-28T08:48:44;14.73;;;7.00;;
53801;SDS011;39709;53.334;6.534;2023-02-28T08:51:12;17.15;;;7.30;;
53801;SDS011;39709;53.334;6.534;2023-02-28T08:53:41;6.60;;;1.63;;
53801;SDS011;39709;53.334;6.534;2023-02-28T08:56:08;14.15;;;6.57;;
53801;SDS011;39709;53.334;6.534;2023-02-28T08:58:35;16.33;;;7.80;;
53801;SDS011;39709;53.334;6.534;2023-02-28T09:01:07;15.77;;;7.32;;
53801;SDS011;39709;53.334;6.534;2023-02-28T09:03:43;14.98;;;6.75;;
53801;SDS011;39709;53.334;6.534;2023-02-28T09:06:11;14.98;;;7.07;;
53801;SDS011;39709;53.334;6.534;2023-02-28T09:08:38;16.38;;;7.18;;
53801;SDS011;39709;53.334;6.534;2023-02-28T09:11:04;18.67;;;7.63;;
53801;SDS011;39709;53.334;6.534;2023-02-28T09:13:30;18.23;;;8.05;;
53801;SDS011;39709;53.334;6.534;2023-02-28T09:15:57;15.50;;;7.55;;
53801;SDS011;39709;53.334;6.534;2023-02-28T09:18:24;17.85;;;7.07;;
53801;SDS011;39709;53.334;6.534;2023-02-28T09:20:51;18.33;;;7.75;;
53801;SDS011;39709;53.334;6.534;2023-02-28T09:23:17;17.37;;;8.73;;
53801;SDS011;39709;53.334;6.534;2023-02-28T09:25:47;14.02;;;6.97;;
53801;SDS011;39709;53.334;6.534;2023-02-28T09:28:15;17.20;;;9.48;;
53801;SDS011;39709;53.334;6.534;2023-02-28T09:30:42;17.48;;;8.93;;
53801;SDS011;39709;53.334;6.534;2023-02-28T09:33:11;13.25;;;6.47;;
53801;SDS011;39709;53.334;6.534;2023-02-28T09:35:38;15.43;;;7.47;;
53801;SDS011;39709;53.334;6.534;2023-02-28T09:38:04;13.50;;;6.65;;
53801;SDS011;39709;53.334;6.534;2023-02-28T09:40:30;19.42;;;13.30;;
53801;SDS011;39709;53.334;6.534;2023-02-28T09:42:56;14.33;;;6.33;;
53801;SDS011;39709;53.334;6.534;2023-02-28T09:45:33;30.30;;;23.13;;
53801;SDS011;39709;53.334;6.534;2023-02-28T09:48:03;17.23;;;11.13;;
53801;SDS011;39709;53.334;6.534;2023-02-28T09:50:39;12.57;;;6.35;;
53801;SDS011;39709;53.334;6.534;2023-02-28T09:53:26;14.10;;;6.85;;
53801;SDS011;39709;53.334;6.534;2023-02-28T09:56:07;21.47;;;12.73;;
53801;SDS011;39709;53.334;6.534;2023-02-28T10:01:21;21.05;;;11.57;;
53801;SDS011;39709;53.334;6.534;2023-02-28T10:03:56;26.08;;;18.20;;
53801;SDS011;39709;53.334;6.534;2023-02-28T10:06:28;13.75;;;6.28;;
53801;SDS011;39709;53.334;6.534;2023-02-28T10:09:39;14.73;;;7.50;;
53801;SDS011;39709;53.334;6.534;2023-02-28T10:11:56;13.07;;;6.63;;
53801;SDS011;39709;53.334;6.534;2023-02-28T10:14:28;24.80;;;13.10;;
53801;SDS011;39709;53.334;6.534;2023-02-28T10:16:56;23.77;;;11.70;;
53801;SDS011;39709;53.334;6.534;2023-02-28T10:22:38;22.00;;;12.43;;
53801;SDS011;39709;53.334;6.534;2023-02-28T10:25:15;13.35;;;5.97;;
53801;SDS011;39709;53.334;6.534;2023-02-28T10:27:43;16.27;;;7.38;;
53801;SDS011;39709;53.334;6.534;2023-02-28T10:30:09;14.15;;;6.45;;
53801;SDS011;39709;53.334;6.534;2023-02-28T10:32:38;13.73;;;6.03;;
53801;SDS011;39709;53.334;6.534;2023-02-28T10:37:47;10.85;;;5.10;;
53801;SDS011;39709;53.334;6.534;2023-02-28T10:40:36;12.93;;;5.53;;
53801;SDS011;39709;53.334;6.534;2023-02-28T10:45:32;9.87;;;4.33;;
53801;SDS011;39709;53.334;6.534;2023-02-28T10:56:01;12.48;;;5.28;;
53801;SDS011;39709;53.334;6.534;2023-02-28T10:58:31;13.27;;;5.20;;
53801;SDS011;39709;53.334;6.534;2023-02-28T11:01:10;13.52;;;6.07;;
53801;SDS011;39709;53.334;6.534;2023-02-28T11:03:47;10.98;;;4.80;;
53801;SDS011;39709;53.334;6.534;2023-02-28T11:06:15;15.10;;;5.63;;
53801;SDS011;39709;53.334;6.534;2023-02-28T11:08:48;11.68;;;5.30;;
53801;SDS011;39709;53.334;6.534;2023-02-28T11:11:19;11.93;;;4.90;;
53801;SDS011;39709;53.334;6.534;2023-02-28T11:13:46;14.95;;;5.22;;
53801;SDS011;39709;53.334;6.534;2023-02-28T11:16:15;11.95;;;5.30;;
53801;SDS011;39709;53.334;6.534;2023-02-28T11:18:49;12.40;;;5.55;;
53801;SDS011;39709;53.334;6.534;2023-02-28T11:21:18;12.70;;;5.38;;
53801;SDS011;39709;53.334;6.534;2023-02-28T11:24:03;15.13;;;5.20;;
53801;SDS011;39709;53.334;6.534;2023-02-28T11:26:38;11.68;;;5.10;;
53801;SDS011;39709;53.334;6.534;2023-02-28T11:29:21;13.43;;;5.63;;
53801;SDS011;39709;53.334;6.534;2023-02-28T11:32:01;11.27;;;4.90;;
53801;SDS011;39709;53.334;6.534;2023-02-28T11:34:44;10.82;;;5.25;;
53801;SDS011;39709;53.334;6.534;2023-02-28T11:37:16;9.27;;;4.07;;
53801;SDS011;39709;53.334;6.534;2023-02-28T11:39:45;13.15;;;4.93;;
53801;SDS011;39709;53.334;6.534;2023-02-28T11:42:23;12.57;;;5.00;;
53801;SDS011;39709;53.334;6.534;2023-02-28T11:45:21;14.98;;;5.82;;
53801;SDS011;39709;53.334;6.534;2023-02-28T11:48:02;14.88;;;5.40;;
53801;SDS011;39709;53.334;6.534;2023-02-28T11:53:31;11.02;;;5.53;;
53801;SDS011;39709;53.334;6.534;2023-02-28T11:56:16;12.20;;;4.70;;
53801;SDS011;39709;53.334;6.534;2023-02-28T12:22:09;11.40;;;5.43;;
53801;SDS011;39709;53.334;6.534;2023-02-28T12:27:44;11.07;;;4.53;;
53801;SDS011;39709;53.334;6.534;2023-02-28T12:30:26;10.55;;;4.50;;
53801;SDS011;39709;53.334;6.534;2023-02-28T12:33:09;11.23;;;4.80;;
53801;SDS011;39709;53.334;6.534;2023-02-28T12:35:52;7.63;;;3.03;;
53801;SDS011;39709;53.334;6.534;2023-02-28T12:38:27;9.70;;;4.40;;
53801;SDS011;39709;53.334;6.534;2023-02-28T12:41:03;12.05;;;5.60;;
53801;SDS011;39709;53.334;6.534;2023-02-28T12:44:11;12.77;;;5.47;;
53801;SDS011;39709;53.334;6.534;2023-02-28T12:46:50;13.70;;;5.57;;
53801;SDS011;39709;53.334;6.534;2023-02-28T12:49:27;12.85;;;5.80;;
53801;SDS011;39709;53.334;6.534;2023-02-28T12:51:57;15.77;;;6.18;;
53801;SDS011;39709;53.334;6.534;2023-02-28T12:54:30;14.15;;;5.32;;
53801;SDS011;39709;53.334;6.534;2023-02-28T12:59:57;12.40;;;5.10;;
53801;SDS011;39709;53.334;6.534;2023-02-28T13:10:38;9.93;;;4.60;;
53801;SDS011;39709;53.334;6.534;2023-02-28T13:13:13;10.23;;;4.90;;
53801;SDS011;39709;53.334;6.534;2023-02-28T13:15:57;9.45;;;4.43;;
53801;SDS011;39709;53.334;6.534;2023-02-28T13:18:35;3.08;;;0.93;;
53801;SDS011;39709;53.334;6.534;2023-02-28T13:21:08;11.00;;;5.10;;
53801;SDS011;39709;53.334;6.534;2023-02-28T13:34:33;8.30;;;2.92;;
53801;SDS011;39709;53.334;6.534;2023-02-28T13:39:54;10.00;;;3.97;;
53801;SDS011;39709;53.334;6.534;2023-02-28T13:52:47;8.57;;;4.30;;
53801;SDS011;39709;53.334;6.534;2023-02-28T14:03:10;9.63;;;3.28;;
53801;SDS011;39709;53.334;6.534;2023-02-28T14:08:59;8.35;;;3.15;;
53801;SDS011;39709;53.334;6.534;2023-02-28T14:13:59;9.02;;;3.88;;
53801;SDS011;39709;53.334;6.534;2023-02-28T14:16:27;12.32;;;5.22;;
53801;SDS011;39709;53.334;6.534;2023-02-28T14:19:12;16.33;;;6.07;;
53801;SDS011;39709;53.334;6.534;2023-02-28T14:21:56;13.30;;;5.57;;
53801;SDS011;39709;53.334;6.534;2023-02-28T14:33:40;15.33;;;6.23;;
53801;SDS011;39709;53.334;6.534;2023-02-28T14:36:27;13.00;;;5.72;;
53801;SDS011;39709;53.334;6.534;2023-02-28T14:39:07;12.30;;;5.90;;
53801;SDS011;39709;53.334;6.534;2023-02-28T14:41:37;13.10;;;5.93;;
53801;SDS011;39709;53.334;6.534;2023-02-28T14:46:43;12.93;;;6.50;;
53801;SDS011;39709;53.334;6.534;2023-02-28T14:49:16;12.73;;;6.47;;
53801;SDS011;39709;53.334;6.534;2023-02-28T14:51:42;13.40;;;6.32;;
53801;SDS011;39709;53.334;6.534;2023-02-28T14:54:12;14.23;;;6.25;;
53801;SDS011;39709;53.334;6.534;2023-02-28T14:56:40;20.60;;;4.43;;
53801;SDS011;39709;53.334;6.534;2023-02-28T14:59:21;15.07;;;5.90;;
53801;SDS011;39709;53.334;6.534;2023-02-28T15:01:50;9.40;;;4.05;;
53801;SDS011;39709;53.334;6.534;2023-02-28T15:04:25;12.20;;;5.50;;
53801;SDS011;39709;53.334;6.534;2023-02-28T15:07:12;13.23;;;5.97;;
53801;SDS011;39709;53.334;6.534;2023-02-28T15:09:39;10.85;;;5.20;;
53801;SDS011;39709;53.334;6.534;2023-02-28T15:12:05;14.95;;;5.85;;
53801;SDS011;39709;53.334;6.534;2023-02-28T15:14:42;8.68;;;4.38;;
53801;SDS011;39709;53.334;6.534;2023-02-28T15:17:11;12.02;;;5.57;;
53801;SDS011;39709;53.334;6.534;2023-02-28T15:19:48;24.63;;;8.93;;
53801;SDS011;39709;53.334;6.534;2023-02-28T15:22:17;13.27;;;6.13;;
53801;SDS011;39709;53.334;6.534;2023-02-28T15:24:53;12.23;;;6.00;;
53801;SDS011;39709;53.334;6.534;2023-02-28T15:27:21;8.88;;;4.57;;
53801;SDS011;39709;53.334;6.534;2023-02-28T15:29:54;14.13;;;6.80;;
53801;SDS011;39709;53.334;6.534;2023-02-28T15:32:40;15.47;;;5.93;;
53801;SDS011;39709;53.334;6.534;2023-02-28T15:37:54;11.65;;;6.20;;
53801;SDS011;39709;53.334;6.534;2023-02-28T15:40:41;12.57;;;6.32;;
53801;SDS011;39709;53.334;6.534;2023-02-28T15:43:16;10.98;;;5.00;;
53801;SDS011;39709;53.334;6.534;2023-02-28T15:50:47;16.23;;;6.70;;
53801;SDS011;39709;53.334;6.534;2023-02-28T15:53:47;11.88;;;5.75;;
53801;SDS011;39709;53.334;6.534;2023-02-28T15:59:23;13.43;;;6.30;;
53801;SDS011;39709;53.334;6.534;2023-02-28T16:04:56;15.30;;;6.97;;
53801;SDS011;39709;53.334;6.534;2023-02-28T16:07:28;12.45;;;6.78;;
53801;SDS011;39709;53.334;6.534;2023-02-28T16:09:54;13.80;;;6.47;;
53801;SDS011;39709;53.334;6.534;2023-02-28T16:12:20;15.30;;;6.90;;
53801;SDS011;39709;53.334;6.534;2023-02-28T16:14:55;15.45;;;7.10;;
53801;SDS011;39709;53.334;6.534;2023-02-28T16:17:26;13.18;;;6.80;;
53801;SDS011;39709;53.334;6.534;2023-02-28T16:19:54;12.47;;;6.60;;
53801;SDS011;39709;53.334;6.534;2023-02-28T16:22:20;13.32;;;7.10;;
53801;SDS011;39709;53.334;6.534;2023-02-28T16:24:46;14.65;;;7.53;;
53801;SDS011;39709;53.334;6.534;2023-02-28T16:27:16;13.80;;;7.17;;
53801;SDS011;39709;53.334;6.534;2023-02-28T16:29:45;14.88;;;6.90;;
53801;SDS011;39709;53.334;6.534;2023-02-28T16:32:12;16.58;;;8.13;;
53801;SDS011;39709;53.334;6.534;2023-02-28T16:34:40;17.10;;;8.35;;
53801;SDS011;39709;53.334;6.534;2023-02-28T16:37:10;14.55;;;7.28;;
53801;SDS011;39709;53.334;6.534;2023-02-28T16:39:38;12.93;;;7.17;;
53801;SDS011;39709;53.334;6.534;2023-02-28T16:42:04;17.38;;;8.52;;
53801;SDS011;39709;53.334;6.534;2023-02-28T16:44:31;17.52;;;9.70;;
53801;SDS011;39709;53.334;6.534;2023-02-28T16:47:00;16.20;;;9.35;;
53801;SDS011;39709;53.334;6.534;2023-02-28T16:49:26;14.60;;;7.83;;
53801;SDS011;39709;53.334;6.534;2023-02-28T16:51:52;25.95;;;14.35;;
53801;SDS011;39709;53.334;6.534;2023-02-28T16:54:18;15.50;;;8.43;;
53801;SDS011;39709;53.334;6.534;2023-02-28T16:56:45;12.23;;;7.22;;
53801;SDS011;39709;53.334;6.534;2023-02-28T16:59:12;13.43;;;7.15;;
53801;SDS011;39709;53.334;6.534;2023-02-28T17:01:38;14.37;;;7.03;;
53801;SDS011;39709;53.334;6.534;2023-02-28T17:04:08;12.40;;;6.30;;
53801;SDS011;39709;53.334;6.534;2023-02-28T17:06:35;14.82;;;6.20;;
53801;SDS011;39709;53.334;6.534;2023-02-28T17:09:01;14.10;;;7.13;;
53801;SDS011;39709;53.334;6.534;2023-02-28T17:11:27;14.82;;;6.47;;
53801;SDS011;39709;53.334;6.534;2023-02-28T17:13:53;16.57;;;6.77;;
53801;SDS011;39709;53.334;6.534;2023-02-28T17:16:23;15.38;;;6.95;;
53801;SDS011;39709;53.334;6.534;2023-02-28T17:18:56;14.77;;;7.27;;
53801;SDS011;39709;53.334;6.534;2023-02-28T17:21:24;15.27;;;6.45;;
53801;SDS011;39709;53.334;6.534;2023-02-28T17:23:51;14.20;;;6.32;;
53801;SDS011;39709;53.334;6.534;2023-02-28T17:26:17;15.68;;;6.20;;